Time;durP1;ratioP1;P1;durP2;ratioP2;P2;SDS_P1;SDS_P2;PMS_P1;PMS_P2;Temp;Humidity;BMP_temperature;BMP_pressure;BME280_temperature;BME280_humidity;BME280_pressure;Samples;Min_cycle;Max_cycle;Signal;HPM_P1;HPM_P2
2022/06/10 00:00:43;;;;;;;16.95;10.65;;;;;;;10.33;100.00;97140.06;4997815;28;20085;-73
2022/06/10 00:03:14;;;;;;;17.63;10.75;;;;;;;10.38;100.00;97142.06;4997490;28;20346;-72
2022/06/10 00:05:42;;;;;;;15.73;10.57;;;;;;;10.32;100.00;97130.41;4996763;28;20452;-73
2022/06/10 00:08:11;;;;;;;17.02;11.30;;;;;;;10.37;100.00;97129.72;4996557;28;20052;-73
2022/06/10 00:10:37;;;;;;;22.13;12.02;;;;;;;10.37;100.00;97130.53;4997259;28;20315;-72
2022/06/10 00:13:03;;;;;;;21.23;12.70;;;;;;;10.36;100.00;97128.91;5001610;28;20129;-72
2022/06/10 00:15:30;;;;;;;23.92;12.80;;;;;;;10.34;100.00;97130.97;4998178;28;20651;-73
2022/06/10 00:17:56;;;;;;;20.83;12.55;;;;;;;10.23;100.00;97135.28;4995255;28;20042;-72
2022/06/10 00:20:25;;;;;;;17.65;12.30;;;;;;;10.25;100.00;97129.69;4980260;28;20042;-72
2022/06/10 00:22:52;;;;;;;16.35;11.60;;;;;;;10.21;100.00;97136.53;4999228;28;20037;-72
2022/06/10 00:25:18;;;;;;;16.48;11.20;;;;;;;10.12;100.00;97129.88;4996876;28;20049;-73
2022/06/10 00:27:44;;;;;;;17.83;10.18;;;;;;;10.24;100.00;97138.75;4996337;28;20105;-72
2022/06/10 00:30:11;;;;;;;15.68;10.55;;;;;;;10.18;100.00;97145.00;4995043;28;20070;-72
2022/06/10 00:32:37;;;;;;;14.82;9.77;;;;;;;10.18;100.00;97140.47;4996879;28;20574;-72
2022/06/10 00:35:04;;;;;;;15.68;9.13;;;;;;;10.20;100.00;97140.25;4998110;28;20126;-72
2022/06/10 00:37:30;;;;;;;17.45;9.13;;;;;;;10.13;100.00;97144.88;4997262;28;20177;-73
2022/06/10 00:39:55;;;;;;;18.83;9.02;;;;;;;10.14;100.00;97149.19;4995642;28;20578;-73
2022/06/10 00:42:21;;;;;;;19.08;9.07;;;;;;;10.03;100.00;97156.09;4996046;28;20039;-74
2022/06/10 00:44:52;;;;;;;13.52;8.48;;;;;;;9.98;100.00;97154.13;4998394;28;20088;-72
2022/06/10 00:47:31;;;;;;;17.20;9.15;;;;;;;10.02;100.00;97151.81;4996491;28;20121;-72
2022/06/10 00:50:00;;;;;;;15.98;9.23;;;;;;;9.97;100.00;97154.38;4998297;28;20457;-73
2022/06/10 00:52:36;;;;;;;15.43;9.35;;;;;;;10.01;100.00;97151.00;4996431;28;20026;-73
2022/06/10 00:55:05;;;;;;;15.68;8.90;;;;;;;10.05;100.00;97156.72;4997810;28;20041;-73
2022/06/10 00:57:38;;;;;;;12.40;8.25;;;;;;;9.97;100.00;97151.69;4995317;28;20037;-72
2022/06/10 01:00:14;;;;;;;13.43;8.30;;;;;;;9.89;100.00;97154.69;4995826;28;20048;-72
2022/06/10 01:02:40;;;;;;;14.73;8.50;;;;;;;9.90;100.00;97150.97;4980780;28;20038;-72
2022/06/10 01:05:10;;;;;;;15.52;9.27;;;;;;;9.83;100.00;97155.59;4997158;28;20049;-72
2022/06/10 01:07:40;;;;;;;18.38;8.80;;;;;;;9.81;100.00;97149.66;4995547;28;20050;-75
2022/06/10 01:10:09;;;;;;;12.95;8.13;;;;;;;9.72;100.00;97147.28;4995285;28;20458;-72
2022/06/10 01:12:46;;;;;;;16.42;8.45;;;;;;;9.75;100.00;97148.69;4996183;28;20065;-72
2022/06/10 01:15:20;;;;;;;14.73;8.75;;;;;;;9.80;100.00;97140.00;4995618;28;20036;-75
2022/06/10 01:18:04;;;;;;;17.55;10.35;;;;;;;9.78;100.00;97141.03;4995986;28;20236;-73
2022/06/10 01:20:58;;;;;;;20.88;9.82;;;;;;;9.69;100.00;97141.59;4977464;28;20154;-72
2022/06/10 01:24:01;;;;;;;16.20;7.97;;;;;;;9.77;100.00;97142.06;4995013;28;20049;-72
2022/06/10 01:29:38;;;;;;;17.02;9.05;;;;;;;9.73;100.00;97140.09;4997013;28;20540;-72
2022/06/10 01:32:20;;;;;;;13.38;8.38;;;;;;;9.65;100.00;97129.69;4992653;28;20141;-72
2022/06/10 01:34:59;;;;;;;16.60;8.48;;;;;;;9.63;100.00;97145.97;4996079;28;20048;-74
2022/06/10 01:37:42;;;;;;;13.45;8.27;;;;;;;9.60;100.00;97149.09;4994223;28;20536;-72
2022/06/10 01:40:35;;;;;;;15.15;8.65;;;;;;;9.58;100.00;97142.34;4995804;28;20104;-72
2022/06/10 01:43:10;;;;;;;15.05;7.05;;;;;;;9.51;100.00;97142.44;4995115;28;20038;-73
2022/06/10 01:45:52;;;;;;;14.27;7.78;;;;;;;9.56;100.00;97133.72;4994722;28;20042;-73
2022/06/10 01:48:29;;;;;;;14.80;8.18;;;;;;;9.59;100.00;97128.78;4992063;28;20470;-72
2022/06/10 01:51:03;;;;;;;14.95;7.43;;;;;;;9.59;100.00;97125.28;4996630;28;20421;-72
2022/06/10 01:53:34;;;;;;;11.93;7.78;;;;;;;9.60;100.00;97133.06;4995850;28;20108;-74
2022/06/10 01:56:11;;;;;;;14.88;7.70;;;;;;;9.59;100.00;97131.44;4995316;28;20062;-72
2022/06/10 01:58:45;;;;;;;11.15;6.85;;;;;;;9.57;100.00;97144.22;4994788;28;20560;-72
2022/06/10 02:01:16;;;;;;;10.10;7.30;;;;;;;9.44;100.00;97142.53;4994466;28;20053;-72
2022/06/10 02:03:55;;;;;;;;;;;;;;;9.32;100.00;97133.63;4995693;28;20045;-72
2022/06/10 02:06:28;;;;;;;15.25;7.18;;;;;;;9.23;100.00;97134.16;4996706;28;19922;-72
2022/06/10 02:09:01;;;;;;;10.90;7.45;;;;;;;9.27;100.00;97138.81;4994431;28;20056;-72
2022/06/10 02:11:30;;;;;;;14.88;7.90;;;;;;;9.36;100.00;97144.69;4994037;28;20107;-73
2022/06/10 02:14:04;;;;;;;10.77;6.93;;;;;;;9.39;100.00;97142.38;4993463;28;20201;-73
2022/06/10 02:16:39;;;;;;;13.27;6.85;;;;;;;9.28;100.00;97145.78;5000096;28;20044;-73
2022/06/10 02:19:17;;;;;;;15.48;7.43;;;;;;;9.19;100.00;97142.63;4992015;28;20045;-73
2022/06/10 02:21:54;;;;;;;15.80;7.35;;;;;;;9.16;100.00;97151.06;4995902;28;20033;-72
2022/06/10 02:24:25;;;;;;;15.57;7.43;;;;;;;9.18;100.00;97151.66;4994404;28;20070;-74
2022/06/10 02:26:55;;;;;;;12.35;8.10;;;;;;;9.15;100.00;97157.44;4994849;28;20048;-72
2022/06/10 02:29:29;;;;;;;10.23;6.85;;;;;;;9.09;100.00;97152.97;4993161;28;20049;-72
2022/06/10 02:31:57;;;;;;;12.75;7.40;;;;;;;9.05;100.00;97159.81;4994259;28;20205;-72
2022/06/10 02:34:24;;;;;;;14.13;7.30;;;;;;;9.12;100.00;97163.22;4993510;28;20767;-72
2022/06/10 02:37:14;;;;;;;12.82;7.45;;;;;;;9.18;100.00;97158.84;4995959;28;20045;-73
2022/06/10 02:39:59;;;;;;;13.32;6.78;;;;;;;9.15;100.00;97159.28;4996741;28;20120;-74
2022/06/10 02:42:35;;;;;;;14.63;6.70;;;;;;;9.17;100.00;97166.03;4992133;28;20053;-72
2022/06/10 02:45:27;;;;;;;12.02;7.43;;;;;;;9.09;100.00;97160.97;4993829;28;20547;-73
2022/06/10 02:48:27;;;;;;;13.18;7.65;;;;;;;9.02;100.00;97165.56;4993378;28;20139;-73
2022/06/10 02:50:53;;;;;;;12.80;7.95;;;;;;;8.88;100.00;97170.25;4935950;28;20047;-73
2022/06/10 02:53:18;;;;;;;14.95;7.35;;;;;;;8.98;100.00;97172.41;4981787;28;20368;-74
2022/06/10 02:55:44;;;;;;;14.77;7.63;;;;;;;9.04;100.00;97182.22;4994957;28;20089;-72
2022/06/10 03:01:12;;;;;;;16.23;7.97;;;;;;;9.10;100.00;97178.63;4995371;28;20283;-72
2022/06/10 03:03:52;;;;;;;12.93;7.65;;;;;;;9.12;100.00;97173.09;4980215;28;20121;-73
2022/06/10 03:06:26;;;;;;;13.17;7.80;;;;;;;9.12;100.00;97176.56;4978503;28;20053;-72
2022/06/10 03:09:15;;;;;;;15.57;7.82;;;;;;;9.10;100.00;97177.81;4994542;28;20297;-72
2022/06/10 03:11:48;;;;;;;13.75;7.75;;;;;;;9.14;100.00;97182.50;4994742;28;20048;-73
2022/06/10 03:14:40;;;;;;;16.40;7.85;;;;;;;9.20;100.00;97188.81;4992166;28;20121;-74
2022/06/10 03:17:18;;;;;;;15.52;7.72;;;;;;;9.19;100.00;97188.00;4996554;28;20049;-73
2022/06/10 03:20:11;;;;;;;15.43;7.65;;;;;;;9.18;100.00;97186.38;4992408;28;20388;-72
2022/06/10 03:23:10;;;;;;;11.80;7.55;;;;;;;9.15;100.00;97191.34;4995030;28;20618;-72
2022/06/10 03:26:04;;;;;;;16.92;7.82;;;;;;;9.20;100.00;97199.50;4998807;28;20042;-72
2022/06/10 03:28:50;;;;;;;15.20;8.07;;;;;;;9.18;100.00;97189.06;4997766;28;20119;-74
2022/06/10 03:31:40;;;;;;;14.85;7.60;;;;;;;9.19;100.00;97195.19;4996703;28;20050;-73
2022/06/10 03:34:19;;;;;;;18.98;9.02;;;;;;;9.24;100.00;97194.53;4997027;28;20050;-73
2022/06/10 03:36:46;;;;;;;21.13;8.95;;;;;;;9.33;100.00;97190.50;5002808;28;20185;-72
2022/06/10 03:39:12;;;;;;;13.00;8.15;;;;;;;9.36;100.00;97193.56;4998405;28;20045;-74
2022/06/10 03:41:58;;;;;;;13.50;8.80;;;;;;;9.43;100.00;97193.50;4998783;28;20521;-72
2022/06/10 03:44:25;;;;;;;15.05;8.63;;;;;;;9.45;100.00;97191.41;4997282;28;20052;-75
2022/06/10 03:46:53;;;;;;;15.80;8.43;;;;;;;9.52;100.00;97207.38;4996821;28;20073;-73
2022/06/10 03:49:23;;;;;;;16.08;8.40;;;;;;;9.54;100.00;97203.44;4996970;28;20506;-72
2022/06/10 03:51:49;;;;;;;19.57;8.43;;;;;;;9.57;100.00;97208.34;4998813;28;20045;-72
2022/06/10 03:54:18;;;;;;;11.50;7.57;;;;;;;9.53;100.00;97204.47;4997052;28;20041;-72
2022/06/10 03:56:44;;;;;;;11.05;8.38;;;;;;;9.50;100.00;97210.28;4996977;28;20030;-73
2022/06/10 03:59:10;;;;;;;14.27;8.73;;;;;;;9.50;100.00;97204.94;4996024;28;20120;-73
2022/06/10 04:01:36;;;;;;;21.02;8.90;;;;;;;9.53;100.00;97203.66;4997252;28;20033;-74
2022/06/10 04:04:04;;;;;;;12.68;9.07;;;;;;;9.58;100.00;97211.84;4997399;28;20046;-73
2022/06/10 04:06:31;;;;;;;11.05;8.60;;;;;;;9.54;100.00;97199.94;4997725;28;20312;-74
2022/06/10 04:08:57;;;;;;;18.92;9.18;;;;;;;9.63;100.00;97219.97;4995949;28;20115;-72
2022/06/10 04:11:22;;;;;;;16.55;10.52;;;;;;;9.66;100.00;97220.34;4998883;28;20042;-72
2022/06/10 04:13:48;;;;;;;18.83;11.07;;;;;;;9.69;100.00;97214.56;4996582;28;20484;-73
2022/06/10 04:16:13;;;;;;;18.70;10.02;;;;;;;9.71;100.00;97211.66;4996820;28;20443;-72
2022/06/10 04:18:39;;;;;;;16.27;9.20;;;;;;;9.75;100.00;97221.69;4997151;28;20369;-75
2022/06/10 04:21:06;;;;;;;16.35;9.15;;;;;;;9.83;100.00;97222.41;4983465;28;20088;-72
2022/06/10 04:23:32;;;;;;;16.27;9.85;;;;;;;9.84;100.00;97222.19;4995845;28;20030;-72
2022/06/10 04:25:58;;;;;;;18.15;8.50;;;;;;;9.93;100.00;97230.72;4999375;28;20534;-72
2022/06/10 04:28:23;;;;;;;12.57;8.18;;;;;;;9.97;100.00;97238.06;4996074;28;20108;-75
2022/06/10 04:30:51;;;;;;;12.48;6.70;;;;;;;10.07;100.00;97232.19;4995121;28;20460;-72
2022/06/10 04:33:18;;;;;;;13.30;6.82;;;;;;;10.24;100.00;97238.53;4982483;28;20085;-72
2022/06/10 04:35:45;;;;;;;11.68;7.07;;;;;;;10.31;100.00;97238.47;4997268;28;20064;-72
2022/06/10 04:38:13;;;;;;;19.33;8.07;;;;;;;10.38;100.00;97243.72;4996513;28;20096;-72
2022/06/10 04:40:39;;;;;;;10.60;7.15;;;;;;;10.46;100.00;97236.19;4997991;28;20038;-74
2022/06/10 04:43:06;;;;;;;17.60;7.25;;;;;;;10.55;100.00;97245.50;4995838;28;20070;-73
2022/06/10 04:45:40;;;;;;;16.17;7.32;;;;;;;10.64;100.00;97237.97;4995592;28;20041;-73
2022/06/10 04:48:06;;;;;;;13.85;6.80;;;;;;;10.74;100.00;97232.03;4993709;28;20046;-72
2022/06/10 04:50:31;;;;;;;16.38;7.07;;;;;;;10.84;100.00;97237.66;4977530;28;20034;-72
2022/06/10 04:52:58;;;;;;;19.17;7.10;;;;;;;10.93;100.00;97243.47;4995533;28;20050;-72
2022/06/10 04:55:25;;;;;;;17.48;6.78;;;;;;;11.01;100.00;97241.28;4998116;28;20569;-72
2022/06/10 04:57:53;;;;;;;14.10;7.50;;;;;;;11.06;100.00;97243.28;4996029;28;20100;-73
2022/06/10 05:00:32;;;;;;;14.60;7.70;;;;;;;11.04;100.00;97240.78;4995346;28;20681;-73
2022/06/10 05:02:58;;;;;;;10.27;7.00;;;;;;;11.09;100.00;97248.97;4995388;28;20671;-73
2022/06/10 05:05:25;;;;;;;11.95;7.15;;;;;;;11.11;100.00;97238.00;4995345;28;20545;-75
2022/06/10 05:07:51;;;;;;;12.27;7.70;;;;;;;11.16;100.00;97248.84;4995945;28;20038;-72
2022/06/10 05:10:18;;;;;;;12.48;7.00;;;;;;;11.19;100.00;97242.22;4995468;28;20413;-73
2022/06/10 05:12:46;;;;;;;15.35;6.68;;;;;;;11.31;100.00;97253.75;4997632;28;20747;-73
2022/06/10 05:15:14;;;;;;;14.57;7.20;;;;;;;11.33;100.00;97257.81;4995036;28;20117;-74
2022/06/10 05:17:40;;;;;;;16.83;7.05;;;;;;;11.32;100.00;97250.81;4976467;28;20065;-73
2022/06/10 05:20:07;;;;;;;12.20;6.53;;;;;;;11.42;100.00;97239.50;4993526;28;20095;-73
2022/06/10 05:22:33;;;;;;;12.13;6.53;;;;;;;11.48;100.00;97253.84;4993877;28;20099;-74
2022/06/10 05:24:58;;;;;;;12.70;6.57;;;;;;;11.58;100.00;97244.16;4996789;28;20573;-73
2022/06/10 05:27:24;;;;;;;10.55;5.97;;;;;;;11.71;100.00;97248.44;4996729;28;20065;-75
2022/06/10 05:29:50;;;;;;;12.00;5.97;;;;;;;11.83;100.00;97241.25;4993832;28;20045;-72
2022/06/10 05:32:16;;;;;;;12.32;5.60;;;;;;;11.92;100.00;97244.38;4994007;28;20485;-73
2022/06/10 05:34:44;;;;;;;10.70;5.40;;;;;;;11.99;100.00;97242.38;4995192;28;20030;-72
2022/06/10 05:37:12;;;;;;;9.40;5.00;;;;;;;12.04;100.00;97236.25;4998379;28;20109;-74
2022/06/10 05:39:37;;;;;;;15.77;4.97;;;;;;;12.08;100.00;97240.13;4993470;28;20348;-73
2022/06/10 05:42:06;;;;;;;12.80;4.72;;;;;;;12.11;100.00;97236.94;4996816;28;20241;-72
2022/06/10 05:44:43;;;;;;;11.02;5.15;;;;;;;12.15;100.00;97232.75;4996182;28;20044;-75
2022/06/10 05:47:12;;;;;;;12.75;4.88;;;;;;;12.21;100.00;97237.94;4995268;28;20077;-73
2022/06/10 05:49:41;;;;;;;12.50;5.13;;;;;;;12.27;100.00;97236.19;4994729;28;20049;-73
2022/06/10 05:52:10;;;;;;;15.43;5.43;;;;;;;12.30;100.00;97234.91;4980253;28;20046;-73
2022/06/10 05:54:37;;;;;;;9.98;4.57;;;;;;;12.38;100.00;97234.50;4997418;28;20040;-72
2022/06/10 05:57:03;;;;;;;13.13;4.38;;;;;;;12.49;100.00;97236.31;4982597;28;20538;-73
2022/06/10 05:59:29;;;;;;;14.32;4.60;;;;;;;12.60;100.00;97245.34;4995873;28;20071;-74
2022/06/10 06:01:56;;;;;;;9.20;4.47;;;;;;;12.69;100.00;97238.53;4991780;28;20577;-74
2022/06/10 06:04:23;;;;;;;13.50;4.53;;;;;;;12.81;100.00;97232.03;4993317;28;20516;-73
2022/06/10 06:06:48;;;;;;;9.07;4.28;;;;;;;12.92;100.00;97241.09;4994491;28;20084;-75
2022/06/10 06:09:14;;;;;;;11.25;4.20;;;;;;;13.03;100.00;97234.78;4991169;28;20152;-73
2022/06/10 06:11:41;;;;;;;11.43;4.00;;;;;;;13.14;100.00;97245.69;4994208;28;20180;-74
2022/06/10 06:14:07;;;;;;;12.23;4.35;;;;;;;13.18;100.00;97246.84;4993485;28;20315;-72
2022/06/10 06:16:33;;;;;;;12.10;4.75;;;;;;;13.25;100.00;97250.22;4994741;28;20056;-73
2022/06/10 06:18:59;;;;;;;14.55;3.92;;;;;;;13.30;100.00;97244.88;4991895;28;20039;-74
2022/06/10 06:21:24;;;;;;;8.98;3.88;;;;;;;13.40;100.00;97247.75;4997070;28;20956;-74
2022/06/10 06:23:50;;;;;;;7.40;3.60;;;;;;;13.48;100.00;97241.94;4994246;28;20042;-73
2022/06/10 06:26:16;;;;;;;11.02;3.75;;;;;;;13.53;100.00;97244.69;4996019;28;20041;-75
2022/06/10 06:28:42;;;;;;;17.20;3.72;;;;;;;13.63;100.00;97249.41;4995099;28;20031;-72
2022/06/10 06:31:09;;;;;;;16.55;3.88;;;;;;;13.70;100.00;97260.00;4994992;28;20164;-73
2022/06/10 06:33:35;;;;;;;6.57;3.63;;;;;;;13.74;100.00;97264.59;4993921;28;20044;-75
2022/06/10 06:36:01;;;;;;;9.93;3.75;;;;;;;13.80;100.00;97260.13;4995739;28;20050;-72
2022/06/10 06:38:28;;;;;;;15.55;4.32;;;;;;;13.81;100.00;97261.75;4992125;28;20118;-72
2022/06/10 06:40:54;;;;;;;11.13;4.15;;;;;;;13.85;100.00;97260.16;4995512;28;20573;-72
2022/06/10 06:43:22;;;;;;;11.85;3.65;;;;;;;13.88;100.00;97257.00;4992723;28;20426;-74
2022/06/10 06:45:48;;;;;;;9.25;4.18;;;;;;;13.91;100.00;97253.78;4994866;28;20050;-72
2022/06/10 06:48:14;;;;;;;13.77;3.97;;;;;;;13.94;100.00;97261.38;4994497;28;20065;-72
2022/06/10 06:50:47;;;;;;;13.23;3.80;;;;;;;13.94;100.00;97266.75;4996758;28;20360;-73
2022/06/10 06:53:13;;;;;;;9.65;3.80;;;;;;;14.00;100.00;97265.72;4995663;28;20046;-75
2022/06/10 06:55:39;;;;;;;10.70;3.63;;;;;;;14.08;100.00;97272.56;4994084;28;20077;-73
2022/06/10 06:58:07;;;;;;;10.52;3.90;;;;;;;14.10;100.00;97265.88;4994051;28;20045;-74
2022/06/10 07:00:33;;;;;;;14.88;4.50;;;;;;;14.14;100.00;97272.38;4995145;28;20306;-73
2022/06/10 07:02:58;;;;;;;15.30;4.38;;;;;;;14.15;100.00;97270.50;4998552;28;20050;-73
2022/06/10 07:05:24;;;;;;;13.98;3.50;;;;;;;14.14;100.00;97264.28;4993484;28;20040;-73
2022/06/10 07:07:50;;;;;;;10.75;3.53;;;;;;;14.13;100.00;97280.69;4994765;28;20046;-73
2022/06/10 07:10:18;;;;;;;8.65;3.40;;;;;;;14.17;100.00;97271.88;4994007;28;20046;-74
2022/06/10 07:12:43;;;;;;;11.27;3.60;;;;;;;14.20;100.00;97271.38;4991869;28;20042;-74
2022/06/10 07:15:09;;;;;;;9.75;3.15;;;;;;;14.15;100.00;97276.69;4994959;28;20519;-75
2022/06/10 07:17:35;;;;;;;14.00;3.42;;;;;;;14.14;100.00;97269.69;4994114;28;20100;-73
2022/06/10 07:20:04;;;;;;;12.25;3.33;;;;;;;14.21;100.00;97264.09;4994087;28;20492;-73
2022/06/10 07:22:30;;;;;;;13.43;3.83;;;;;;;14.32;100.00;97265.88;4996229;28;20053;-73
2022/06/10 07:24:55;;;;;;;13.77;3.67;;;;;;;14.45;100.00;97267.34;4994839;28;20466;-72
2022/06/10 07:27:22;;;;;;;12.75;3.78;;;;;;;14.57;100.00;97268.03;4980348;28;20053;-72
2022/06/10 07:29:48;;;;;;;12.77;2.97;;;;;;;14.64;100.00;97282.13;4994371;28;20397;-72
2022/06/10 07:32:14;;;;;;;11.50;3.25;;;;;;;14.70;100.00;97267.59;4993833;28;20054;-72
2022/06/10 07:34:39;;;;;;;12.75;3.55;;;;;;;14.74;100.00;97270.63;4994022;28;20095;-73
2022/06/10 07:37:05;;;;;;;13.65;3.20;;;;;;;14.85;100.00;97266.13;4993471;28;20038;-72
2022/06/10 07:39:35;;;;;;;13.43;3.20;;;;;;;14.92;100.00;97272.13;4973271;28;20040;-72
2022/06/10 07:42:02;;;;;;;12.75;3.38;;;;;;;15.08;100.00;97275.75;4993632;28;20054;-73
2022/06/10 07:44:34;;;;;;;13.75;3.15;;;;;;;15.23;100.00;97273.19;4980107;28;20393;-72
2022/06/10 07:47:02;;;;;;;12.95;3.65;;;;;;;15.37;100.00;97273.56;4994872;28;20440;-72
2022/06/10 07:49:28;;;;;;;17.25;3.92;;;;;;;15.41;100.00;97275.50;4993684;28;20042;-73
2022/06/10 07:51:54;;;;;;;15.77;4.13;;;;;;;15.53;100.00;97269.88;4992821;28;20441;-72
2022/06/10 07:54:19;;;;;;;18.20;3.78;;;;;;;15.58;100.00;97269.94;4993875;28;20053;-74
2022/06/10 07:56:45;;;;;;;14.38;3.67;;;;;;;15.57;100.00;97271.81;4994337;28;20343;-72
2022/06/10 07:59:11;;;;;;;16.58;4.20;;;;;;;15.58;100.00;97275.31;4994589;28;20041;-74
2022/06/10 08:01:37;;;;;;;19.05;4.30;;;;;;;15.65;100.00;97270.53;4976079;28;20057;-73
2022/06/10 08:04:06;;;;;;;11.98;3.00;;;;;;;15.55;100.00;97270.44;4991099;28;20113;-73
2022/06/10 08:06:34;;;;;;;12.32;3.63;;;;;;;15.62;100.00;97267.53;4994520;28;20092;-72
2022/06/10 08:09:00;;;;;;;16.42;3.38;;;;;;;15.71;100.00;97274.88;4995630;28;20033;-73
2022/06/10 08:11:26;;;;;;;15.88;3.17;;;;;;;15.96;100.00;97268.81;4996740;28;20130;-73
2022/06/10 08:13:52;;;;;;;22.52;3.67;;;;;;;16.12;100.00;97253.50;4997104;28;20037;-70
2022/06/10 08:16:18;;;;;;;10.32;3.05;;;;;;;16.22;100.00;97260.81;4984984;28;20465;-71
2022/06/10 08:18:45;;;;;;;14.20;2.78;;;;;;;16.33;100.00;97254.34;4998891;28;20541;-70
2022/06/10 08:23:56;;;;;;;20.20;3.17;;;;;;;16.50;100.00;97254.13;4996050;28;20034;-72
2022/06/10 08:26:22;;;;;;;12.80;2.92;;;;;;;16.82;100.00;97251.25;4996518;28;20042;-73
2022/06/10 08:28:48;;;;;;;15.10;3.13;;;;;;;16.83;100.00;97261.00;4993511;28;20501;-72
2022/06/10 08:31:14;;;;;;;19.98;3.30;;;;;;;16.80;100.00;97261.50;4998205;28;20123;-72
2022/06/10 08:33:40;;;;;;;16.08;3.05;;;;;;;16.58;100.00;97250.94;4996856;28;20096;-73
2022/06/10 08:36:07;;;;;;;12.57;2.60;;;;;;;16.61;100.00;97267.41;4997591;28;20048;-72
2022/06/10 08:38:33;;;;;;;17.35;2.88;;;;;;;16.81;100.00;97260.44;4995931;28;20049;-75
2022/06/10 08:41:01;;;;;;;18.55;2.63;;;;;;;17.03;100.00;97268.28;4997476;28;20050;-73
2022/06/10 08:43:49;;;;;;;10.00;2.63;;;;;;;17.13;100.00;97271.81;4999270;28;20072;-72
2022/06/10 08:46:53;;;;;;;15.65;2.80;;;;;;;17.03;100.00;97268.28;4991343;28;20046;-72
2022/06/10 08:49:46;;;;;;;17.80;2.60;;;;;;;17.25;100.00;97275.03;4994935;28;20472;-74
2022/06/10 08:52:27;;;;;;;18.23;2.85;;;;;;;17.47;100.00;97269.34;4995020;28;20065;-72
2022/06/10 08:55:21;;;;;;;16.00;2.92;;;;;;;17.65;100.00;97269.84;4997482;28;20580;-72
2022/06/10 08:57:48;;;;;;;13.65;2.78;;;;;;;17.88;100.00;97274.69;4996628;28;20042;-73
2022/06/10 09:00:26;;;;;;;11.38;2.13;;;;;;;17.87;100.00;97272.28;4996362;28;20038;-73
2022/06/10 09:03:07;;;;;;;12.95;2.00;;;;;;;17.78;100.00;97280.16;4998110;28;20034;-72
2022/06/10 09:05:45;;;;;;;10.18;1.80;;;;;;;17.60;100.00;97288.81;4995357;28;20046;-73
2022/06/10 09:08:18;;;;;;;16.42;2.67;;;;;;;17.67;100.00;97283.94;4995194;28;20489;-72
2022/06/10 09:10:54;;;;;;;15.23;2.15;;;;;;;17.87;100.00;97278.50;4978979;28;20042;-75
2022/06/10 09:13:44;;;;;;;12.82;2.38;;;;;;;17.62;100.00;97278.53;4996392;28;20038;-73
2022/06/10 09:16:20;;;;;;;14.85;2.10;;;;;;;17.75;100.00;97276.09;4995641;28;20042;-74
2022/06/10 09:19:23;;;;;;;16.92;2.25;;;;;;;17.73;100.00;97283.66;4994906;28;20034;-73
2022/06/10 09:22:07;;;;;;;12.50;3.30;;;;;;;17.87;100.00;97269.56;4983203;28;20046;-73
2022/06/10 09:24:45;;;;;;;13.45;2.20;;;;;;;18.18;100.00;97272.97;4997056;28;20041;-72
2022/06/10 09:27:26;;;;;;;20.83;6.28;;;;;;;18.43;100.00;97274.75;4998604;28;20042;-72
2022/06/10 09:29:51;;;;;;;11.48;2.20;;;;;;;18.54;98.56;97276.34;4302650;28;10000410;-72
2022/06/10 09:32:50;;;;;;;10.13;2.00;;;;;;;18.10;100.00;97277.88;4994657;28;20453;-72
2022/06/10 09:35:19;;;;;;;14.32;2.25;;;;;;;18.25;97.64;97278.91;4993819;28;20397;-75
2022/06/10 09:38:10;;;;;;;19.75;2.60;;;;;;;18.13;100.00;97283.81;4994229;28;20053;-74
2022/06/10 09:40:39;;;;;;;21.58;1.83;;;;;;;18.07;100.00;97283.06;4993735;28;20042;-72
2022/06/10 09:43:29;;;;;;;8.85;1.77;;;;;;;17.94;99.13;97291.75;4994134;28;20037;-74
2022/06/10 09:45:57;;;;;;;10.50;1.77;;;;;;;18.25;99.69;97284.31;4993563;28;20511;-74
2022/06/10 09:48:41;;;;;;;9.00;1.77;;;;;;;18.83;97.79;97281.84;4996062;28;20046;-72
2022/06/10 09:51:23;;;;;;;9.18;2.22;;;;;;;19.17;100.00;97271.84;4994334;28;20498;-74
2022/06/10 09:53:56;;;;;;;13.52;2.13;;;;;;;19.07;95.31;97277.38;4993120;28;20048;-74
2022/06/10 09:56:36;;;;;;;10.30;1.50;;;;;;;19.05;92.75;97281.44;4992730;28;20473;-75
2022/06/10 09:59:15;;;;;;;11.20;1.60;;;;;;;19.51;87.96;97271.00;4994014;28;20181;-73
2022/06/10 10:01:56;;;;;;;8.52;2.03;;;;;;;20.19;89.32;97268.13;4994932;28;20073;-73
2022/06/10 10:04:45;;;;;;;13.32;1.80;;;;;;;20.58;78.96;97267.94;4995617;28;20153;-72
2022/06/10 10:07:44;;;;;;;9.65;1.85;;;;;;;20.97;83.21;97257.84;4993110;28;20132;-72
2022/06/10 10:10:31;;;;;;;8.55;1.40;;;;;;;20.85;78.13;97259.13;4992030;28;20335;-73
2022/06/10 10:13:09;;;;;;;12.52;2.00;;;;;;;21.81;80.46;97257.81;4994089;28;20042;-73
2022/06/10 10:15:51;;;;;;;9.60;1.80;;;;;;;22.42;66.38;97251.97;4995641;28;20046;-72
2022/06/10 10:18:36;;;;;;;10.65;1.55;;;;;;;22.21;62.04;97253.50;4994046;28;20313;-72
2022/06/10 10:21:11;;;;;;;13.85;1.80;;;;;;;21.74;64.64;97250.03;4993248;28;20423;-73
2022/06/10 10:23:59;;;;;;;6.35;1.35;;;;;;;21.12;56.95;97239.38;4975222;28;20406;-72
2022/06/10 10:26:25;;;;;;;11.73;1.73;;;;;;;21.64;64.47;97240.13;4992632;28;20069;-73
2022/06/10 10:29:05;;;;;;;6.82;1.67;;;;;;;21.91;64.36;97246.69;4989555;28;20109;-72
2022/06/10 10:31:44;;;;;;;10.63;1.57;;;;;;;21.59;68.98;97256.56;4989601;28;20050;-72
2022/06/10 10:34:36;;;;;;;11.80;1.70;;;;;;;21.85;65.90;97253.34;4992754;28;20729;-73
2022/06/10 10:37:05;;;;;;;12.15;1.70;;;;;;;22.80;69.86;97257.09;4992393;28;20514;-73
2022/06/10 10:39:38;;;;;;;8.15;1.55;;;;;;;23.49;60.91;97241.25;4991344;28;20093;-73
2022/06/10 10:42:27;;;;;;;10.60;1.50;;;;;;;24.32;53.48;97249.69;4972770;28;20084;-73
2022/06/10 10:45:04;;;;;;;6.90;1.35;;;;;;;24.46;45.54;97255.03;4991128;28;20532;-72
2022/06/10 10:47:31;;;;;;;6.90;1.40;;;;;;;24.50;49.94;97244.25;4992688;28;20037;-73
2022/06/10 10:50:05;;;;;;;11.77;1.98;;;;;;;24.77;51.55;97245.91;4993839;28;20065;-72
2022/06/10 10:52:33;;;;;;;7.30;1.60;;;;;;;24.91;51.67;97249.31;4992585;28;20494;-72
2022/06/10 10:55:05;;;;;;;6.68;1.70;;;;;;;25.22;49.63;97246.41;4992405;28;20048;-73
2022/06/10 10:57:35;;;;;;;13.25;2.38;;;;;;;25.21;48.73;97244.78;4992172;28;20042;-73
2022/06/10 11:00:09;;;;;;;7.60;1.70;;;;;;;26.14;50.29;97244.03;4991299;28;20465;-72
2022/06/10 11:02:47;;;;;;;11.00;1.88;;;;;;;26.54;47.86;97244.50;4992829;28;20053;-72
2022/06/10 11:05:15;;;;;;;13.75;1.95;;;;;;;26.41;44.58;97248.28;4992190;28;20078;-73
2022/06/10 11:07:43;;;;;;;8.15;1.40;;;;;;;26.24;45.55;97249.16;4992563;28;20057;-73
2022/06/10 11:10:21;;;;;;;14.02;1.70;;;;;;;25.90;41.32;97249.31;4990605;28;20354;-73
2022/06/10 11:12:48;;;;;;;9.68;1.65;;;;;;;25.44;44.30;97242.66;4991356;28;20033;-74
2022/06/10 11:15:28;;;;;;;8.10;1.60;;;;;;;25.27;45.88;97238.81;4993818;28;20042;-73
2022/06/10 11:17:56;;;;;;;9.90;1.73;;;;;;;26.41;47.30;97239.25;4994043;28;20408;-73
2022/06/10 11:20:28;;;;;;;5.05;1.45;;;;;;;26.94;41.33;97239.38;4991883;28;20355;-73
2022/06/10 11:23:26;;;;;;;5.53;1.35;;;;;;;26.23;38.33;97233.06;4994183;28;20057;-74
2022/06/10 11:26:10;;;;;;;9.02;1.77;;;;;;;25.80;39.82;97236.78;4994471;28;20093;-73
2022/06/10 11:28:39;;;;;;;10.70;2.05;;;;;;;26.47;41.83;97241.50;4992353;28;20061;-75
2022/06/10 11:31:19;;;;;;;8.73;1.90;;;;;;;28.04;37.04;97242.47;4992212;28;20042;-73
2022/06/10 11:33:47;;;;;;;10.02;2.05;;;;;;;29.59;33.00;97221.94;4990657;28;20041;-76
2022/06/10 11:36:41;;;;;;;8.18;1.80;;;;;;;32.98;30.03;97217.63;4993997;28;20388;-73
2022/06/10 11:39:27;;;;;;;9.73;1.90;;;;;;;30.66;30.89;97219.06;4978860;28;20620;-74
2022/06/10 11:42:00;;;;;;;10.70;1.95;;;;;;;27.73;38.12;97232.00;4993679;28;20042;-74
2022/06/10 11:44:31;;;;;;;7.40;1.92;;;;;;;27.02;38.65;97231.38;4996872;28;20046;-73
2022/06/10 11:47:15;;;;;;;7.30;1.80;;;;;;;27.88;37.99;97227.00;4994752;28;20390;-76
2022/06/10 11:50:01;;;;;;;10.25;1.90;;;;;;;29.37;35.97;97219.75;4995735;28;20049;-76
2022/06/10 11:52:35;;;;;;;9.70;1.70;;;;;;;30.22;33.94;97210.13;4996356;28;20057;-75
2022/06/10 11:55:16;;;;;;;11.73;1.85;;;;;;;28.47;37.16;97215.53;4997592;28;20095;-75